Main page
METAR-TAF:

METAR-TAF

Airports :

Tiree, Scotland

Tiree Airport

latitude: 56-30N, longitude: 006-53W, elevation: 12 m

Current weather observation

The report was made 16 minutes ago, at 13:20 UTC
Wind 15 kt from the West
Temperature 11°C
Humidity 71%
Pressure 1009 hPa
Visibility 10 km or more
Broken clouds at a height of 3800 ft

METAR: EGPU 221320Z 28015KT 9999 BKN038 11/06 Q1009

Time: 14:36 (13:36 UTC)

Forecast

The report was made 23 hours and 34 minutes ago, at 14:02 UTC
Forecast valid from 21 at 15 UTC to 21 at 18 UTC
Wind 10 kt from the East/Northeast
Visibility 10 km or more
Scattered clouds at a height of 3000 ft
Becoming
from 21 at 15 UTC to 21 at 18 UTC
Wind 9 kt from the North
Temporary
from 21 at 15 UTC to 21 at 18 UTC
Visibility: 6000 m
rain
Probability 40% :
Temporary
from 21 at 15 UTC to 21 at 18 UTC
Broken clouds at a height of 1400 ft

TAF: EGPU 211402Z 2115/2118 06010KT 9999 SCT030 BECMG 2115/2118 35009KT TEMPO 2115/2118 6000 RA PROB40 TEMPO 2115/2118 BKN014

Weather observations and forecasts of more than 4000 airports (METAR and TAF reports).

The available stations are represented by yellow and red dots on the map.

Hover mouse over dot to see the name of the station.

Then click to see weather observations and forecasts.

To change the map : click on the green buttons with a black cross to zoom in, on the green button with a dash to zoom out, or on the green arrows for adjacent maps.


METAR-TAF: